Aktuální počasí v Tlučné 

Teplota 11.9 °C
Minimální teplota 7.3 °C Maximální teplota 26.0 °C
Teplota rosného bodu 6.1 °C Pocitová teplota 11.9 °C
Tlak 1022.8 hPa
Směr a rychlost větru  0 m/s
» 0 m/s
vlhkost 67.8 %
Teplota 0.0  mm/h
SlunceUV3.45 dnes zítra
↑ 07:01 ↑ 07:03
↓ 18:53 ↓ 18:51
   
Měsíc dnes zítra
↑ 03:02 ↑ 04:08
↓ 17:27 ↓ 17:56
   
  LKLN Metar
  LKLN Metar
2016/09/27 18:00
LKLN 271800Z AUTO 00000KT CAVOK 15/08 Q1028
Rychlost a směr větru Bezvětří
0 km/h
--
10 km
32805.1 ft
--
Teplota 15 °C
Rosný bod 8°C
 
Tlak 1028 hPa
771.1 mmHg
 
  YR.no meteogram
  YR.no meteogram
Meteogram YR.no
  IN-Pocasi.cz
  IN-Pocasi.cz
In-Pocasi logo




  PocasiIdnes     CHMI     MeteoPress     Radar     Radar2  


  Valid XHTML 1.0 Transitional  


Provozni a servisni denik

Popis

ČKD / FAQ